Terminal Aerodrome Forecast
Issued by NWS

Home | Current Version | Previous Version | Text Only | Print | Product List | Glossary On
Versions: 1 2 3 4 5 6 7 8 9 10 11 12 13 14 15
000
FTUS46 KSGX 281700
TAFPSP
TAF
KPSP 281731Z 2818/2918 VRB05KT P6SM BKN150
     FM281900 12007KT P6SM VCTS SCT080CB BKN150
     FM290200 32011KT P6SM FEW080 SCT200
     FM290600 VRB05KT P6SM SCT250=

USA.gov is the U.S. government's official web portal to all federal, state and local government web resources and services.